Time;durP1;ratioP1;P1;durP2;ratioP2;P2;SDS_P1;SDS_P2;PMS_P1;PMS_P2;Temp;Humidity;BMP_temperature;BMP_pressure;BME280_temperature;BME280_humidity;BME280_pressure;Samples;Min_cycle;Max_cycle;Signal;HPM_P1;HPM_P2
2023/10/02 00:01:17;;;;;;;7.43;6.93;;;16.10;77.80;;;;;;6189118;28;20237;-82
2023/10/02 00:04:24;;;;;;;7.57;6.97;;;16.00;77.80;;;;;;6182619;28;20327;-80
2023/10/02 00:07:29;;;;;;;7.83;7.23;;;16.00;77.90;;;;;;6190848;28;20251;-81
2023/10/02 00:10:33;;;;;;;7.87;7.17;;;15.90;78.00;;;;;;6190484;28;20232;-82
2023/10/02 00:13:37;;;;;;;9.03;8.23;;;15.80;78.20;;;;;;6189894;28;20240;-82
2023/10/02 00:16:40;;;;;;;7.67;7.17;;;15.80;78.30;;;;;;6188401;28;20308;-85
2023/10/02 00:19:45;;;;;;;8.07;7.37;;;15.80;78.30;;;;;;6189574;28;20236;-83
2023/10/02 00:22:50;;;;;;;7.90;7.27;;;15.80;78.40;;;;;;6193055;28;20712;-81
2023/10/02 00:26:03;;;;;;;7.53;6.93;;;15.80;78.50;;;;;;6181468;28;20256;-81
2023/10/02 00:29:09;;;;;;;6.83;6.33;;;15.80;78.40;;;;;;6188681;28;20252;-81
2023/10/02 00:32:13;;;;;;;7.70;7.00;;;15.80;78.40;;;;;;6190834;28;20790;-80
2023/10/02 00:35:16;;;;;;;7.30;6.80;;;15.80;78.50;;;;;;6187276;28;20264;-81
2023/10/02 00:38:19;;;;;;;7.27;6.77;;;15.80;78.50;;;;;;6189611;28;20315;-82
2023/10/02 00:41:22;;;;;;;7.77;7.10;;;15.80;78.40;;;;;;6189381;28;20290;-80
2023/10/02 00:44:51;;;;;;;8.43;7.73;;;15.80;78.40;;;;;;6183191;28;20318;-82
2023/10/02 00:47:53;;;;;;;8.13;7.40;;;15.80;78.40;;;;;;6189447;28;20284;-81
2023/10/02 00:50:59;;;;;;;7.80;7.20;;;15.80;78.40;;;;;;6189024;28;20243;-81
2023/10/02 00:54:23;;;;;;;9.07;8.27;;;15.90;78.30;;;;;;6189531;28;20259;-80
2023/10/02 00:57:27;;;;;;;8.03;7.30;;;15.90;78.30;;;;;;6188695;28;20736;-81
2023/10/02 01:00:36;;;;;;;7.77;7.17;;;15.90;78.30;;;;;;6180964;28;20360;-81
2023/10/02 01:04:07;;;;;;;7.70;7.20;;;16.00;78.30;;;;;;6188665;28;20232;-79
2023/10/02 01:07:11;;;;;;;7.83;7.23;;;16.00;78.30;;;;;;6188387;28;20236;-82
2023/10/02 01:10:23;;;;;;;8.80;8.00;;;16.00;78.30;;;;;;6181740;28;20252;-80
2023/10/02 01:13:30;;;;;;;7.90;7.30;;;16.00;78.30;;;;;;6189279;28;20240;-82
2023/10/02 01:16:36;;;;;;;8.83;8.03;;;16.00;78.20;;;;;;6174182;28;20248;-83
2023/10/02 01:19:53;;;;;;;8.83;8.03;;;16.00;78.10;;;;;;6192763;28;20399;-81
2023/10/02 01:23:11;;;;;;;8.00;7.30;;;16.00;78.10;;;;;;6188433;28;20613;-82
2023/10/02 01:26:18;;;;;;;9.00;8.10;;;16.00;77.90;;;;;;6188731;28;20240;-81
2023/10/02 01:29:22;;;;;;;9.00;8.23;;;16.00;77.80;;;;;;6188458;28;20332;-82
2023/10/02 01:32:26;;;;;;;8.60;7.77;;;16.00;77.60;;;;;;6183246;28;20290;-81
2023/10/02 01:35:29;;;;;;;9.53;7.87;;;16.00;77.50;;;;;;6182229;28;20244;-85
2023/10/02 01:38:34;;;;;;;7.37;6.80;;;16.00;77.00;;;;;;6189015;28;20275;-82
2023/10/02 01:41:38;;;;;;;8.70;7.40;;;16.00;76.80;;;;;;6180637;28;20689;-80
2023/10/02 01:44:54;;;;;;;7.07;6.47;;;16.10;76.50;;;;;;6188392;28;20241;-81
2023/10/02 01:47:58;;;;;;;7.67;7.07;;;16.10;76.30;;;;;;6189782;28;20721;-80
2023/10/02 01:51:15;;;;;;;6.93;6.33;;;16.10;76.10;;;;;;6188974;28;20223;-83
2023/10/02 01:54:19;;;;;;;7.37;6.70;;;16.10;76.00;;;;;;6183290;28;20712;-83
2023/10/02 01:57:29;;;;;;;6.70;6.23;;;16.10;76.00;;;;;;6188786;28;20239;-80
2023/10/02 02:00:34;;;;;;;6.53;6.03;;;16.10;75.90;;;;;;6187554;28;20243;-80
2023/10/02 02:03:39;;;;;;;6.43;5.93;;;16.20;75.80;;;;;;6187584;28;20240;-81
2023/10/02 02:06:52;;;;;;;6.13;5.73;;;16.20;75.70;;;;;;6187008;28;20236;-80
2023/10/02 02:10:00;;;;;;;6.07;5.60;;;16.10;75.70;;;;;;6180255;28;20614;-80
2023/10/02 02:13:06;;;;;;;6.47;5.97;;;16.20;75.70;;;;;;6187670;28;20260;-83
2023/10/02 02:16:16;;;;;;;6.60;6.10;;;16.10;75.70;;;;;;6188305;28;20641;-80
2023/10/02 02:19:22;;;;;;;6.60;6.00;;;16.10;75.90;;;;;;6188533;28;20243;-83
2023/10/02 02:22:31;;;;;;;7.43;6.73;;;16.10;75.80;;;;;;6181735;28;20766;-83
2023/10/02 02:25:35;;;;;;;7.13;6.43;;;16.10;75.80;;;;;;6179701;28;20747;-82
2023/10/02 02:28:44;;;;;;;6.27;5.87;;;16.10;75.80;;;;;;6180753;28;20231;-81
2023/10/02 02:31:48;;;;;;;9.10;6.63;;;16.10;75.70;;;;;;6187953;28;20624;-83
2023/10/02 02:35:00;;;;;;;6.60;6.03;;;16.10;75.70;;;;;;6181236;28;20243;-82
2023/10/02 02:38:13;;;;;;;7.27;6.57;;;16.10;75.70;;;;;;6180673;28;20311;-79
2023/10/02 02:41:18;;;;;;;7.10;6.43;;;16.10;75.80;;;;;;6193014;28;20232;-81
2023/10/02 02:44:39;;;;;;;7.03;6.43;;;16.20;75.80;;;;;;6177074;28;20228;-82
2023/10/02 02:47:51;;;;;;;6.30;5.90;;;16.10;75.70;;;;;;6179137;28;20754;-81
2023/10/02 02:51:14;;;;;;;6.80;6.23;;;16.10;75.40;;;;;;6187815;28;20758;-82
2023/10/02 02:54:17;;;;;;;6.53;5.97;;;16.00;75.40;;;;;;6182274;28;20323;-81
2023/10/02 02:57:25;;;;;;;8.10;6.30;;;16.00;75.30;;;;;;6176797;28;20421;-84
2023/10/02 03:00:35;;;;;;;7.20;6.50;;;16.00;75.10;;;;;;6179033;28;20270;-81
2023/10/02 03:03:41;;;;;;;6.60;6.03;;;16.00;75.00;;;;;;6188107;28;20619;-81
2023/10/02 03:06:44;;;;;;;7.30;6.60;;;16.00;75.00;;;;;;6178665;28;20255;-82
2023/10/02 03:09:47;;;;;;;5.83;5.37;;;16.00;75.00;;;;;;6187127;28;20320;-81
2023/10/02 03:12:52;;;;;;;6.47;5.90;;;15.90;75.00;;;;;;6188000;28;20228;-80
2023/10/02 03:16:08;;;;;;;6.13;5.63;;;15.80;75.20;;;;;;6186313;28;20622;-82
2023/10/02 03:19:13;;;;;;;5.83;5.40;;;15.80;75.30;;;;;;6184014;28;20247;-81
2023/10/02 03:22:20;;;;;;;6.43;5.90;;;15.70;75.40;;;;;;6171409;28;20724;-85
2023/10/02 03:25:26;;;;;;;7.87;7.00;;;15.60;75.60;;;;;;6189121;28;20233;-81
2023/10/02 03:28:32;;;;;;;7.57;6.87;;;15.60;75.80;;;;;;6183240;28;20916;-81
2023/10/02 03:31:43;;;;;;;7.37;6.73;;;15.50;76.00;;;;;;6180388;28;20242;-84
2023/10/02 03:35:02;;;;;;;7.47;6.70;;;15.50;76.10;;;;;;6189702;28;20263;-84
2023/10/02 03:38:05;;;;;;;8.37;7.40;;;15.40;76.10;;;;;;6186770;28;20240;-83
2023/10/02 03:41:10;;;;;;;8.20;7.37;;;15.40;76.20;;;;;;6187044;28;20242;-81
2023/10/02 03:44:14;;;;;;;6.50;6.00;;;15.40;76.10;;;;;;6192239;28;20232;-81
2023/10/02 03:47:18;;;;;;;6.80;6.20;;;15.30;76.00;;;;;;6182965;28;20234;-82
2023/10/02 03:50:24;;;;;;;6.73;6.23;;;15.30;76.10;;;;;;6190391;28;20232;-81
2023/10/02 03:53:30;;;;;;;9.53;7.23;;;15.20;76.20;;;;;;6190009;28;20243;-80
2023/10/02 03:56:36;;;;;;;8.27;7.47;;;15.20;76.40;;;;;;6189986;28;20236;-79
2023/10/02 03:59:52;;;;;;;7.80;7.20;;;15.00;76.50;;;;;;6185796;28;20240;-83
2023/10/02 04:02:59;;;;;;;6.43;5.97;;;15.00;76.60;;;;;;6190095;28;20295;-82
2023/10/02 04:06:05;;;;;;;7.33;6.63;;;15.00;76.80;;;;;;6186610;28;21018;-81
2023/10/02 04:09:21;;;;;;;8.03;7.33;;;14.90;77.00;;;;;;6185358;28;20897;-82
2023/10/02 04:12:24;;;;;;;7.37;6.67;;;14.90;77.10;;;;;;6176163;28;20232;-82
2023/10/02 04:15:27;;;;;;;7.27;6.67;;;14.80;77.30;;;;;;6185024;28;20235;-79
2023/10/02 04:18:46;;;;;;;7.83;7.20;;;14.80;77.50;;;;;;6179191;28;20251;-79
2023/10/02 04:21:52;;;;;;;9.77;7.63;;;14.70;77.60;;;;;;6178718;28;20273;-80
2023/10/02 04:25:03;;;;;;;8.20;7.50;;;14.70;77.70;;;;;;6181696;28;20375;-81
2023/10/02 04:28:08;;;;;;;8.87;8.07;;;14.70;77.70;;;;;;6176066;28;20244;-81
2023/10/02 04:31:20;;;;;;;8.30;7.53;;;14.60;77.70;;;;;;6200363;28;20375;-80
2023/10/02 04:34:29;;;;;;;8.90;7.80;;;14.60;77.80;;;;;;6182852;28;20228;-84
2023/10/02 04:37:36;;;;;;;8.40;7.60;;;14.60;78.00;;;;;;6187756;28;20248;-83
2023/10/02 04:40:49;;;;;;;9.60;7.70;;;14.60;78.10;;;;;;6189156;28;20243;-83
2023/10/02 04:43:57;;;;;;;8.20;7.23;;;14.50;78.00;;;;;;6189791;28;20240;-84
2023/10/02 04:47:01;;;;;;;9.80;8.57;;;14.50;78.00;;;;;;6185724;28;20236;-86
2023/10/02 04:53:28;;;;;;;9.47;8.53;;;14.50;78.10;;;;;;6197287;28;20248;-84
2023/10/02 04:56:32;;;;;;;9.67;8.77;;;14.50;78.10;;;;;;6196177;28;20244;-82
2023/10/02 04:59:51;;;;;;;10.77;9.20;;;14.40;78.00;;;;;;6188225;28;20739;-82
2023/10/02 05:03:09;;;;;;;10.37;9.00;;;14.40;78.10;;;;;;6181114;28;20241;-83
2023/10/02 05:06:16;;;;;;;9.23;8.43;;;14.40;78.20;;;;;;6188416;28;20236;-81
2023/10/02 05:09:25;;;;;;;8.67;7.97;;;14.40;78.30;;;;;;6187881;28;20232;-81
2023/10/02 05:12:31;;;;;;;9.77;8.87;;;14.40;78.30;;;;;;6188476;28;20244;-80
2023/10/02 05:15:33;;;;;;;9.33;8.47;;;14.30;78.40;;;;;;6188404;28;20798;-84
2023/10/02 05:18:36;;;;;;;9.77;8.77;;;14.30;78.40;;;;;;6185191;28;20326;-82
2023/10/02 05:21:43;;;;;;;9.77;8.77;;;14.30;78.40;;;;;;6182731;28;20259;-85
2023/10/02 05:24:48;;;;;;;13.50;9.90;;;14.30;78.40;;;;;;6188689;28;20267;-81
2023/10/02 05:27:55;;;;;;;11.77;8.87;;;14.30;78.40;;;;;;6183309;28;20233;-83
2023/10/02 05:30:58;;;;;;;17.90;10.17;;;14.30;78.30;;;;;;6174378;28;20319;-83
2023/10/02 05:34:06;;;;;;;12.10;9.60;;;14.30;78.30;;;;;;6189140;28;20358;-83
2023/10/02 05:37:12;;;;;;;11.60;9.07;;;14.30;78.30;;;;;;6183575;28;20235;-80
2023/10/02 05:43:55;;;;;;;10.37;8.77;;;14.30;78.20;;;;;;6186274;28;20438;-82
2023/10/02 05:47:05;;;;;;;13.47;10.27;;;14.40;78.10;;;;;;6185823;28;20254;-83
2023/10/02 05:50:10;;;;;;;12.63;9.33;;;14.40;78.10;;;;;;6190492;28;20243;-80
2023/10/02 05:53:15;;;;;;;12.93;9.60;;;14.50;78.00;;;;;;6200701;28;20244;-83
2023/10/02 05:56:19;;;;;;;9.77;8.73;;;14.50;78.00;;;;;;6184318;28;20243;-83
2023/10/02 05:59:24;;;;;;;15.87;10.43;;;14.60;77.80;;;;;;6188834;28;20753;-82
2023/10/02 06:02:28;;;;;;;13.03;9.57;;;14.60;77.50;;;;;;6187657;28;20243;-82
2023/10/02 06:05:31;;;;;;;9.77;8.73;;;14.60;77.50;;;;;;6186446;28;20236;-83
2023/10/02 06:08:40;;;;;;;10.33;8.83;;;14.70;77.40;;;;;;6184771;28;20236;-83
2023/10/02 06:12:05;;;;;;;14.87;10.50;;;14.80;77.20;;;;;;6195237;28;20236;-77
2023/10/02 06:15:43;;;;;;;12.70;9.83;;;14.80;77.00;;;;;;6190220;28;20244;-83
2023/10/02 06:18:32;;;;;;;14.70;10.23;;;14.80;76.50;;;;;;6186096;28;20228;-82
2023/10/02 06:21:45;;;;;;;16.07;11.97;;;15.00;76.40;;;;;;6182049;28;20251;-84
2023/10/02 06:24:51;;;;;;;14.53;11.30;;;15.00;75.50;;;;;;6186835;28;20323;-84
2023/10/02 06:28:19;;;;;;;14.87;11.50;;;15.10;75.40;;;;;;6182490;28;20258;-83
2023/10/02 06:31:31;;;;;;;16.43;11.90;;;15.00;75.30;;;;;;6195143;28;20232;-81
2023/10/02 06:34:37;;;;;;;13.70;11.13;;;15.20;75.10;;;;;;6193591;28;20236;-79
2023/10/02 06:37:43;;;;;;;12.43;10.57;;;15.20;75.00;;;;;;6189339;28;20236;-83
2023/10/02 06:40:55;;;;;;;13.17;11.87;;;15.30;74.80;;;;;;6185876;28;20244;-84
2023/10/02 06:44:14;;;;;;;21.73;11.50;;;15.40;74.80;;;;;;6187807;28;20267;-84
2023/10/02 06:47:17;;;;;;;14.53;11.37;;;15.50;73.90;;;;;;6185140;28;20240;-82
2023/10/02 06:50:27;;;;;;;15.40;11.23;;;15.50;73.90;;;;;;6194175;28;20727;-82
2023/10/02 06:53:31;;;;;;;15.97;11.20;;;15.50;74.20;;;;;;6203010;28;20246;-80
2023/10/02 06:56:36;;;;;;;18.20;11.60;;;15.60;73.90;;;;;;6199003;28;20243;-81
2023/10/02 06:59:39;;;;;;;13.97;10.90;;;15.60;73.60;;;;;;6190039;28;20334;-82
2023/10/02 07:02:54;;;;;;;16.80;11.20;;;15.60;73.70;;;;;;6190906;28;20243;-83
2023/10/02 07:05:58;;;;;;;18.10;11.70;;;16.00;73.10;;;;;;6190032;28;20467;-86
2023/10/02 07:09:10;;;;;;;13.70;11.33;;;16.30;72.20;;;;;;6193208;28;20239;-80
2023/10/02 07:12:16;;;;;;;14.43;10.97;;;16.40;71.90;;;;;;6193786;28;20319;-83
2023/10/02 07:15:22;;;;;;;17.30;11.30;;;16.40;71.50;;;;;;6194364;28;20259;-84
2023/10/02 07:18:35;;;;;;;13.07;10.40;;;16.40;71.50;;;;;;6192499;28;20244;-80
2023/10/02 07:21:40;;;;;;;15.57;11.77;;;16.40;71.80;;;;;;6188802;28;20239;-82
2023/10/02 07:24:46;;;;;;;15.80;10.63;;;16.50;71.50;;;;;;6192872;28;20235;-82
2023/10/02 07:27:57;;;;;;;18.30;13.23;;;16.50;71.20;;;;;;6185045;28;20315;-82
2023/10/02 07:31:01;;;;;;;16.10;11.60;;;16.60;71.20;;;;;;6191451;28;22088;-81
2023/10/02 07:34:07;;;;;;;15.50;11.73;;;16.50;71.00;;;;;;6191568;28;20283;-84
2023/10/02 07:37:13;;;;;;;17.63;11.27;;;16.70;71.00;;;;;;6185627;28;20870;-82
2023/10/02 07:40:16;;;;;;;14.17;10.77;;;16.80;70.90;;;;;;6190185;28;20753;-81
2023/10/02 07:43:23;;;;;;;16.30;11.40;;;16.90;70.50;;;;;;6179670;28;20236;-82
2023/10/02 07:46:27;;;;;;;14.87;10.13;;;17.00;70.20;;;;;;6190381;28;20634;-83
2023/10/02 07:49:32;;;;;;;12.13;9.60;;;17.00;70.10;;;;;;6190997;28;20242;-83
2023/10/02 07:52:38;;;;;;;12.77;9.43;;;17.20;70.20;;;;;;6188419;28;20839;-84
2023/10/02 07:55:46;;;;;;;15.20;10.90;;;17.30;70.20;;;;;;6190857;28;20243;-82
2023/10/02 07:59:01;;;;;;;19.93;11.10;;;17.40;70.10;;;;;;6191524;28;20768;-84
2023/10/02 08:02:21;;;;;;;12.53;10.27;;;17.60;68.90;;;;;;6190251;28;20236;-83
2023/10/02 08:05:25;;;;;;;14.47;10.90;;;17.80;69.00;;;;;;6191053;28;20375;-82
2023/10/02 08:08:32;;;;;;;14.30;10.70;;;17.90;68.80;;;;;;6192640;28;20257;-83
2023/10/02 08:11:36;;;;;;;10.97;8.87;;;18.10;68.20;;;;;;6185661;28;20236;-84
2023/10/02 08:14:42;;;;;;;13.77;9.73;;;18.30;68.30;;;;;;6193515;28;20250;-83
2023/10/02 08:21:09;;;;;;;13.40;10.43;;;18.70;66.90;;;;;;6188397;28;20243;-83
2023/10/02 08:24:12;;;;;;;13.40;9.67;;;18.90;66.90;;;;;;6193306;28;20621;-85
2023/10/02 08:27:15;;;;;;;12.90;10.07;;;19.20;66.80;;;;;;6188496;28;20240;-82
2023/10/02 08:30:27;;;;;;;12.60;9.47;;;19.40;66.10;;;;;;6192795;28;20236;-84
2023/10/02 08:33:32;;;;;;;12.63;9.57;;;19.50;65.60;;;;;;6195815;28;20240;-82
2023/10/02 08:37:07;;;;;;;12.63;9.17;;;19.70;65.70;;;;;;6190837;28;20232;-84
2023/10/02 08:40:14;;;;;;;10.40;9.00;;;19.80;65.70;;;;;;6205876;28;20268;-77
2023/10/02 08:43:22;;;;;;;18.00;9.90;;;20.00;64.70;;;;;;6211166;28;20228;-80
2023/10/02 08:46:27;;;;;;;12.67;9.80;;;20.00;64.90;;;;;;6216385;28;20251;-82
2023/10/02 08:49:30;;;;;;;12.63;9.57;;;20.00;64.60;;;;;;6213721;28;20240;-78
2023/10/02 08:52:41;;;;;;;10.57;8.80;;;20.10;64.30;;;;;;6203190;28;20247;-82
2023/10/02 08:55:51;;;;;;;11.63;9.37;;;20.30;64.60;;;;;;6194190;28;20220;-82
2023/10/02 08:59:16;;;;;;;14.13;10.27;;;20.30;64.20;;;;;;6188470;28;20239;-82
2023/10/02 09:02:26;;;;;;;11.27;8.57;;;20.50;64.30;;;;;;6199704;28;20236;-79
2023/10/02 09:05:36;;;;;;;16.73;12.50;;;20.60;64.30;;;;;;6198730;28;20837;-81
2023/10/02 09:09:15;;;;;;;13.47;10.17;;;20.80;63.20;;;;;;6196438;28;20274;-82
2023/10/02 09:12:14;;;;;;;13.10;10.20;;;20.90;62.50;;;;;;6192014;28;20240;-83
2023/10/02 09:15:29;;;;;;;15.43;9.53;;;20.80;62.90;;;;;;6196440;28;20244;-82
2023/10/02 09:19:07;;;;;;;12.20;9.63;;;21.00;62.60;;;;;;6191733;28;20239;-78
2023/10/02 09:22:10;;;;;;;10.80;9.57;;;21.10;63.10;;;;;;6191437;28;20380;-77
2023/10/02 09:25:15;;;;;;;11.47;9.23;;;21.20;62.00;;;;;;6190283;28;20317;-78
2023/10/02 09:28:41;;;;;;;11.50;9.10;;;21.40;62.60;;;;;;6186797;28;20254;-78
2023/10/02 09:31:47;;;;;;;15.00;8.90;;;21.70;62.30;;;;;;6184568;28;20236;-78
2023/10/02 09:35:13;;;;;;;9.40;8.07;;;21.90;61.20;;;;;;6184323;28;20319;-76
2023/10/02 09:38:42;;;;;;;13.07;9.20;;;21.90;61.20;;;;;;6186007;28;20232;-78
2023/10/02 09:41:46;;;;;;;11.93;9.23;;;21.90;61.50;;;;;;6182509;28;20359;-80
2023/10/02 09:44:51;;;;;;;12.13;8.80;;;22.10;60.30;;;;;;6189863;28;20236;-78
2023/10/02 09:47:54;;;;;;;11.43;8.60;;;22.20;60.60;;;;;;6194023;28;20228;-79
2023/10/02 09:51:15;;;;;;;8.33;7.60;;;22.30;60.20;;;;;;6192984;28;20251;-78
2023/10/02 09:54:31;;;;;;;9.30;8.00;;;22.60;60.30;;;;;;6188461;28;20403;-78
2023/10/02 09:57:39;;;;;;;10.27;8.23;;;22.70;59.90;;;;;;6187454;28;20854;-81
2023/10/02 10:01:29;;;;;;;12.10;9.47;;;22.90;59.10;;;;;;6187790;28;20250;-77
2023/10/02 10:08:33;;;;;;;8.70;7.80;;;23.30;58.00;;;;;;6186726;28;20248;-82
2023/10/02 10:11:36;;;;;;;9.77;7.90;;;23.30;58.10;;;;;;6177538;28;20236;-81
2023/10/02 10:14:40;;;;;;;10.83;8.23;;;23.40;58.70;;;;;;6190418;28;20379;-80
2023/10/02 10:17:57;;;;;;;12.40;8.57;;;23.50;58.30;;;;;;6188965;28;20752;-80
2023/10/02 10:21:33;;;;;;;13.30;10.40;;;23.60;58.20;;;;;;6190241;28;20316;-78
2023/10/02 10:25:15;;;;;;;9.33;8.30;;;23.90;57.10;;;;;;6187976;28;20236;-81
2023/10/02 10:28:29;;;;;;;11.20;8.33;;;23.80;57.50;;;;;;6185695;28;20228;-81
2023/10/02 10:31:33;;;;;;;9.33;7.70;;;24.00;56.90;;;;;;6188572;28;20319;-80
2023/10/02 10:38:41;;;;;;;11.03;8.27;;;24.10;57.80;;;;;;6304520;27;20577;-80
2023/10/02 10:41:57;;;;;;;11.10;8.10;;;24.20;56.60;;;;;;6300211;28;20245;-82
2023/10/02 10:45:07;;;;;;;8.80;7.23;;;24.20;56.80;;;;;;6305120;27;20236;-80
2023/10/02 10:48:22;;;;;;;13.50;10.77;;;24.20;56.10;;;;;;6295680;28;20229;-82
2023/10/02 10:51:27;;;;;;;10.33;7.63;;;24.20;56.70;;;;;;6300029;28;20244;-82
2023/10/02 10:54:39;;;;;;;10.83;8.40;;;24.10;56.80;;;;;;6307623;28;20240;-82
2023/10/02 10:58:00;;;;;;;8.23;7.43;;;24.20;57.30;;;;;;6306704;28;20272;-81
2023/10/02 11:01:13;;;;;;;8.77;7.87;;;24.00;57.70;;;;;;6295368;28;20240;-83
2023/10/02 11:04:26;;;;;;;11.67;7.50;;;24.00;56.80;;;;;;6284697;28;20233;-82
2023/10/02 11:07:37;;;;;;;7.73;6.93;;;23.80;57.60;;;;;;6304049;28;20224;-83
2023/10/02 11:10:42;;;;;;;9.10;6.97;;;23.50;57.70;;;;;;6303050;28;20237;-82
2023/10/02 11:13:54;;;;;;;7.40;6.80;;;23.60;57.90;;;;;;6295258;28;20233;-83
2023/10/02 11:17:01;;;;;;;10.17;7.27;;;23.60;58.60;;;;;;6301172;28;20233;-77
2023/10/02 11:20:07;;;;;;;9.13;7.57;;;23.70;58.50;;;;;;6313748;28;20547;-77
2023/10/02 11:23:10;;;;;;;8.63;7.77;;;23.90;58.50;;;;;;6331411;27;20259;-82
2023/10/02 11:26:15;;;;;;;7.70;6.47;;;24.20;58.00;;;;;;6311735;28;20236;-81
2023/10/02 11:29:20;;;;;;;10.20;7.63;;;24.20;57.90;;;;;;6311423;28;20241;-82
2023/10/02 11:32:24;;;;;;;8.27;7.47;;;24.30;57.60;;;;;;6324636;28;20301;-78
2023/10/02 11:35:29;;;;;;;9.47;8.47;;;24.40;57.20;;;;;;6330021;28;20229;-80
2023/10/02 11:38:33;;;;;;;9.20;8.20;;;24.40;56.50;;;;;;6322692;28;20229;-85
2023/10/02 11:41:41;;;;;;;10.73;8.90;;;24.50;55.60;;;;;;6331402;28;20219;-82
2023/10/02 11:44:44;;;;;;;11.03;9.23;;;24.60;55.50;;;;;;6330504;28;20320;-79
2023/10/02 11:47:47;;;;;;;10.10;8.67;;;24.70;55.50;;;;;;6321940;28;20225;-79
2023/10/02 11:50:55;;;;;;;11.10;9.00;;;24.80;55.10;;;;;;6316194;28;20240;-78
2023/10/02 11:53:59;;;;;;;9.87;8.80;;;24.80;54.60;;;;;;6319281;28;20636;-79
2023/10/02 11:57:08;;;;;;;12.30;9.80;;;24.60;55.30;;;;;;6316140;28;20214;-76
2023/10/02 12:00:13;;;;;;;9.83;8.83;;;24.80;55.60;;;;;;6314265;28;20234;-79
2023/10/02 12:03:19;;;;;;;10.90;9.33;;;25.00;55.10;;;;;;6319132;28;20225;-79
2023/10/02 12:06:23;;;;;;;11.10;9.47;;;24.80;54.70;;;;;;6314936;28;20259;-80
2023/10/02 12:09:27;;;;;;;14.57;9.50;;;24.60;55.30;;;;;;6295170;28;20282;-82
2023/10/02 12:12:32;;;;;;;12.97;9.70;;;24.60;55.50;;;;;;6283680;28;20230;-84
2023/10/02 12:15:35;;;;;;;11.40;8.73;;;24.80;55.30;;;;;;6281074;28;20316;-85
2023/10/02 12:18:40;;;;;;;10.90;8.97;;;25.00;55.10;;;;;;6290099;28;20230;-85
2023/10/02 12:21:43;;;;;;;10.87;9.07;;;24.80;54.90;;;;;;6287372;28;20290;-84
2023/10/02 12:25:05;;;;;;;11.07;9.57;;;24.60;55.40;;;;;;6286374;28;20769;-85
2023/10/02 12:28:12;;;;;;;11.00;9.07;;;24.80;55.30;;;;;;6283983;28;20312;-83
2023/10/02 12:31:17;;;;;;;9.80;8.80;;;24.90;54.90;;;;;;6288864;28;20248;-82
2023/10/02 12:34:21;;;;;;;10.70;9.27;;;24.70;55.20;;;;;;6286906;28;20307;-82
2023/10/02 12:37:24;;;;;;;11.37;8.90;;;24.70;55.30;;;;;;6286732;28;20261;-83
2023/10/02 12:40:31;;;;;;;11.73;9.63;;;24.70;55.10;;;;;;6284233;28;20395;-85
2023/10/02 12:43:37;;;;;;;9.83;8.83;;;24.80;55.60;;;;;;6290370;28;20237;-81
2023/10/02 12:46:43;;;;;;;13.33;9.93;;;24.90;55.30;;;;;;6283962;28;20249;-84
2023/10/02 12:49:47;;;;;;;10.77;9.07;;;25.00;55.20;;;;;;6282520;28;20241;-83
2023/10/02 12:52:50;;;;;;;11.27;9.30;;;25.00;55.60;;;;;;6275184;28;20232;-82
2023/10/02 12:55:53;;;;;;;12.20;9.83;;;24.80;55.00;;;;;;6291602;28;20268;-85
2023/10/02 12:58:59;;;;;;;10.73;9.63;;;24.80;55.30;;;;;;6283839;28;20244;-84
2023/10/02 13:02:02;;;;;;;11.43;9.87;;;24.70;55.90;;;;;;6277958;28;20240;-84
2023/10/02 13:05:09;;;;;;;11.27;9.03;;;24.70;55.80;;;;;;6285731;28;20237;-83
2023/10/02 13:08:13;;;;;;;12.70;9.37;;;24.70;56.20;;;;;;6286184;28;20236;-82
2023/10/02 13:11:18;;;;;;;10.80;9.17;;;24.80;55.40;;;;;;6283629;28;20232;-82
2023/10/02 13:14:23;;;;;;;11.23;9.43;;;25.00;56.00;;;;;;6285007;28;20764;-83
2023/10/02 13:17:28;;;;;;;12.40;9.07;;;25.00;55.80;;;;;;6292254;28;20263;-81
2023/10/02 13:20:33;;;;;;;12.13;9.90;;;25.00;56.00;;;;;;6284867;28;20279;-81
2023/10/02 13:23:36;;;;;;;13.00;9.73;;;24.80;56.00;;;;;;6290846;28;20241;-81
2023/10/02 13:26:40;;;;;;;10.93;9.83;;;24.80;56.10;;;;;;6282160;28;21077;-81
2023/10/02 13:29:45;;;;;;;11.27;9.27;;;24.80;56.00;;;;;;6281292;28;20233;-83
2023/10/02 13:32:48;;;;;;;11.27;8.83;;;24.80;55.80;;;;;;6276992;28;20244;-80
2023/10/02 13:35:57;;;;;;;9.67;8.63;;;25.00;55.50;;;;;;6284048;28;20233;-82
2023/10/02 13:39:03;;;;;;;8.83;7.90;;;25.00;55.90;;;;;;6276013;28;20246;-81
2023/10/02 13:42:08;;;;;;;9.17;7.90;;;25.00;56.00;;;;;;6292858;28;20233;-81
2023/10/02 13:45:13;;;;;;;11.03;7.87;;;25.00;55.90;;;;;;6294053;28;20279;-83
2023/10/02 13:48:16;;;;;;;9.47;7.87;;;25.10;55.30;;;;;;6284427;28;20238;-82
2023/10/02 13:51:20;;;;;;;8.57;7.63;;;25.00;55.40;;;;;;6272722;28;20248;-78
2023/10/02 13:54:24;;;;;;;8.17;7.37;;;25.00;55.90;;;;;;6284304;28;20257;-79
2023/10/02 13:57:27;;;;;;;8.27;7.57;;;25.20;55.20;;;;;;6278150;28;20763;-79
2023/10/02 14:00:35;;;;;;;9.47;7.70;;;25.00;54.80;;;;;;6265575;28;20610;-77
2023/10/02 14:03:40;;;;;;;7.43;6.80;;;25.20;55.50;;;;;;6285684;28;20233;-81
2023/10/02 14:06:46;;;;;;;10.30;7.83;;;25.20;55.30;;;;;;6287607;28;20253;-79
2023/10/02 14:09:49;;;;;;;10.40;6.93;;;25.30;54.90;;;;;;6294805;28;20241;-78
2023/10/02 14:12:52;;;;;;;7.70;6.90;;;25.20;55.20;;;;;;6300708;28;20290;-78
2023/10/02 14:16:03;;;;;;;7.70;7.00;;;25.30;55.20;;;;;;6276825;28;20233;-82
2023/10/02 14:19:06;;;;;;;7.97;7.23;;;25.40;55.30;;;;;;6294312;28;20252;-80
2023/10/02 14:22:10;;;;;;;7.53;6.57;;;25.50;55.80;;;;;;6290558;28;20253;-81
2023/10/02 14:25:14;;;;;;;7.17;6.47;;;25.40;55.20;;;;;;6291389;28;20244;-83
2023/10/02 14:28:17;;;;;;;6.93;6.20;;;25.40;54.70;;;;;;6290380;28;20236;-80
2023/10/02 14:31:28;;;;;;;6.77;6.17;;;25.40;55.30;;;;;;6288088;28;20348;-78
2023/10/02 14:34:33;;;;;;;9.80;7.27;;;25.40;55.20;;;;;;6280491;28;20300;-78
2023/10/02 14:37:36;;;;;;;8.37;7.60;;;25.20;54.80;;;;;;6289029;28;20230;-77
2023/10/02 14:40:39;;;;;;;8.23;7.43;;;25.00;55.30;;;;;;6265873;28;20638;-79
2023/10/02 14:43:42;;;;;;;8.17;7.37;;;25.00;55.50;;;;;;6288214;28;20252;-79
2023/10/02 14:46:47;;;;;;;7.70;6.90;;;24.90;55.70;;;;;;6284431;28;20242;-78
2023/10/02 14:49:50;;;;;;;7.37;6.67;;;24.90;55.80;;;;;;6277024;28;20245;-80
2023/10/02 14:52:55;;;;;;;8.80;6.40;;;24.90;55.30;;;;;;6285111;28;20243;-80
2023/10/02 14:56:02;;;;;;;7.50;6.80;;;24.90;55.50;;;;;;6284582;28;20316;-78
2023/10/02 14:59:06;;;;;;;7.43;6.77;;;24.90;55.90;;;;;;6278283;28;20386;-80
2023/10/02 15:02:11;;;;;;;7.50;6.80;;;24.80;55.90;;;;;;6275858;28;20316;-79
2023/10/02 15:05:16;;;;;;;6.83;6.20;;;24.70;55.90;;;;;;6275234;28;20245;-78
2023/10/02 15:08:19;;;;;;;7.23;6.57;;;24.60;56.00;;;;;;6278300;28;20229;-79
2023/10/02 15:11:22;;;;;;;7.30;6.17;;;24.50;56.20;;;;;;6281744;28;20237;-79
2023/10/02 15:14:27;;;;;;;8.53;6.63;;;24.40;56.50;;;;;;6287010;28;20294;-77
2023/10/02 15:17:34;;;;;;;7.00;6.40;;;24.40;56.40;;;;;;6278902;28;20239;-81
2023/10/02 15:20:39;;;;;;;7.60;6.80;;;24.30;56.60;;;;;;6285612;28;20870;-79
2023/10/02 15:23:42;;;;;;;6.93;6.30;;;24.20;56.90;;;;;;6283785;28;20252;-80
2023/10/02 15:26:45;;;;;;;7.57;6.80;;;24.10;57.10;;;;;;6285534;28;20253;-82
2023/10/02 15:29:49;;;;;;;7.17;6.20;;;24.00;57.50;;;;;;6284938;28;20705;-81
2023/10/02 15:32:55;;;;;;;6.87;6.27;;;24.00;57.70;;;;;;6286093;28;20310;-77
2023/10/02 15:35:59;;;;;;;6.60;6.10;;;23.90;57.90;;;;;;6287188;28;20466;-76
2023/10/02 15:39:03;;;;;;;6.53;6.03;;;23.80;58.20;;;;;;6274955;28;20299;-76
2023/10/02 15:42:07;;;;;;;6.93;6.23;;;23.60;58.40;;;;;;6283465;28;20894;-75
2023/10/02 15:45:15;;;;;;;8.27;7.40;;;23.60;58.90;;;;;;6289573;28;20237;-76
2023/10/02 15:48:19;;;;;;;8.20;7.50;;;23.50;58.70;;;;;;6291176;28;20714;-82
2023/10/02 15:51:23;;;;;;;8.50;6.63;;;23.50;59.00;;;;;;6290868;28;20640;-79
2023/10/02 15:54:29;;;;;;;6.80;6.20;;;23.40;59.40;;;;;;6283090;28;20674;-78
2023/10/02 15:57:32;;;;;;;7.83;7.13;;;23.30;60.00;;;;;;6276558;28;20237;-78
2023/10/02 16:00:36;;;;;;;8.13;7.33;;;23.30;59.50;;;;;;6270827;28;20233;-77
2023/10/02 16:03:40;;;;;;;11.27;7.90;;;23.30;59.70;;;;;;6279942;28;20298;-79
2023/10/02 16:06:44;;;;;;;7.10;6.50;;;23.20;59.50;;;;;;6284058;28;20248;-78
2023/10/02 16:10:08;;;;;;;7.63;7.03;;;23.20;59.80;;;;;;6273526;28;20372;-77
2023/10/02 16:13:11;;;;;;;7.43;6.83;;;23.20;59.90;;;;;;6289581;28;20236;-79
2023/10/02 16:16:14;;;;;;;7.93;7.13;;;23.10;60.10;;;;;;6290638;28;20271;-79
2023/10/02 16:19:19;;;;;;;8.13;7.33;;;23.00;60.30;;;;;;6272742;28;20735;-81
2023/10/02 16:22:22;;;;;;;8.30;7.37;;;22.90;60.50;;;;;;6278645;28;20230;-79
2023/10/02 16:25:27;;;;;;;9.60;7.97;;;22.80;60.90;;;;;;6286963;28;20233;-80
2023/10/02 16:28:33;;;;;;;9.57;7.87;;;22.70;61.30;;;;;;6281969;28;20260;-78